Time;durP1;ratioP1;P1;durP2;ratioP2;P2;SDS_P1;SDS_P2;PMS_P1;PMS_P2;Temp;Humidity;BMP_temperature;BMP_pressure;BME280_temperature;BME280_humidity;BME280_pressure;Samples;Min_cycle;Max_cycle;Signal;HPM_P1;HPM_P2
2022/04/06 00:02:26;;;;;;;38.25;21.08;;;;;;;7.87;100.00;98831.84;5075013;28;20059;-85
2022/04/06 00:04:54;;;;;;;37.10;21.10;;;;;;;7.86;100.00;98833.63;5074419;28;20040;-86
2022/04/06 00:07:29;;;;;;;38.58;21.80;;;;;;;7.86;100.00;98833.63;5074433;28;20432;-87
2022/04/06 00:09:57;;;;;;;37.13;21.02;;;;;;;7.86;100.00;98828.31;5076508;28;20052;-86
2022/04/06 00:12:22;;;;;;;42.00;22.17;;;;;;;7.85;100.00;98820.44;5074889;28;20028;-87
2022/04/06 00:14:55;;;;;;;41.13;21.40;;;;;;;7.85;100.00;98826.63;5074939;28;20085;-87
2022/04/06 00:17:21;;;;;;;40.97;23.25;;;;;;;7.87;100.00;98822.09;5075336;28;20033;-87
2022/04/06 00:19:49;;;;;;;40.05;21.98;;;;;;;7.83;100.00;98802.75;5075789;28;20066;-87
2022/04/06 00:22:15;;;;;;;42.78;22.65;;;;;;;7.88;100.00;98820.31;5074412;28;20024;-87
2022/04/06 00:24:43;;;;;;;38.55;22.65;;;;;;;7.82;100.00;98811.66;5076913;28;20031;-86
2022/04/06 00:27:15;;;;;;;42.40;22.92;;;;;;;7.85;100.00;98808.00;5076105;28;20025;-86
2022/04/06 00:29:43;;;;;;;41.05;23.10;;;;;;;7.87;100.00;98808.81;5076416;28;20021;-87
2022/04/06 00:32:12;;;;;;;43.92;24.15;;;;;;;7.87;100.00;98803.50;5074534;28;20115;-86
2022/04/06 00:37:21;;;;;;;;;;;;;;;7.86;100.00;98791.13;5080946;28;20074;-88
2022/04/06 00:39:56;;;;;;;47.78;23.92;;;;;;;7.90;100.00;98813.13;5075636;28;19908;-88
2022/04/06 00:42:21;;;;;;;41.85;22.73;;;;;;;7.88;100.00;98801.69;5073947;28;20434;-88
2022/04/06 00:44:50;;;;;;;39.42;22.60;;;;;;;7.97;100.00;98797.75;5075275;28;20067;-87
2022/04/06 00:47:15;;;;;;;41.20;23.83;;;;;;;7.92;100.00;98801.50;5073859;28;20481;-87
2022/04/06 00:49:46;;;;;;;42.60;23.67;;;;;;;7.92;100.00;98785.56;5074067;28;20033;-87
2022/04/06 00:52:18;;;;;;;39.63;22.55;;;;;;;7.89;100.00;98796.31;5074898;28;20032;-86
2022/04/06 00:54:46;;;;;;;46.40;23.17;;;;;;;7.85;100.00;98792.06;5073425;28;20078;-85
2022/04/06 00:57:19;;;;;;;44.97;24.42;;;;;;;7.98;100.00;98783.56;5073390;28;20024;-87
2022/04/06 00:59:54;;;;;;;42.20;24.10;;;;;;;7.92;100.00;98788.22;5075611;28;20366;-86
2022/04/06 01:02:26;;;;;;;43.97;22.90;;;;;;;7.95;100.00;98787.22;5075198;28;20131;-87
2022/04/06 01:04:54;;;;;;;41.10;23.63;;;;;;;7.88;100.00;98786.63;5072998;28;20497;-85
2022/04/06 01:07:23;;;;;;;40.58;21.85;;;;;;;7.90;100.00;98776.78;5072909;28;20036;-85
2022/04/06 01:09:51;;;;;;;36.55;20.98;;;;;;;7.97;100.00;98779.16;5074618;28;20043;-86
2022/04/06 01:12:26;;;;;;;41.15;22.40;;;;;;;7.89;100.00;98780.38;5073800;28;20381;-87
2022/04/06 01:14:52;;;;;;;40.35;21.48;;;;;;;7.90;100.00;98774.13;5072121;28;20036;-85
2022/04/06 01:17:18;;;;;;;39.08;20.58;;;;;;;7.92;100.00;98777.56;5073188;28;20074;-86
2022/04/06 01:19:47;;;;;;;37.28;20.23;;;;;;;7.88;100.00;98778.66;5074380;28;20095;-86
2022/04/06 01:22:26;;;;;;;39.72;20.02;;;;;;;7.94;100.00;98783.69;5072480;28;20375;-86
2022/04/06 01:24:51;;;;;;;35.85;20.05;;;;;;;7.94;100.00;98766.88;5073854;28;20055;-86
2022/04/06 01:27:26;;;;;;;39.10;18.98;;;;;;;7.97;100.00;98776.50;5072764;28;20078;-86
2022/04/06 01:29:57;;;;;;;39.58;18.65;;;;;;;7.96;100.00;98769.47;5073619;28;20028;-86
2022/04/06 01:32:25;;;;;;;35.25;19.00;;;;;;;7.91;100.00;98778.50;5073599;28;20035;-86
2022/04/06 01:34:54;;;;;;;36.60;18.35;;;;;;;7.99;100.00;98761.38;5073485;28;20074;-86
2022/04/06 01:37:20;;;;;;;29.17;18.30;;;;;;;7.96;100.00;98769.47;5073912;28;20036;-85
2022/04/06 01:39:47;;;;;;;37.03;18.65;;;;;;;7.93;100.00;98766.03;5075980;28;20032;-84
2022/04/06 01:42:21;;;;;;;40.13;18.55;;;;;;;7.90;100.00;98754.66;5073616;28;20389;-86
2022/04/06 01:44:49;;;;;;;;;;;;;;;7.93;100.00;98762.50;5075282;28;20530;-86
2022/04/06 01:47:17;;;;;;;43.95;17.77;;;;;;;7.91;100.00;98769.69;5073115;28;19973;-86
2022/04/06 01:52:30;;;;;;;37.00;19.17;;;;;;;7.86;100.00;98761.03;5074142;28;20082;-86
2022/04/06 01:55:08;;;;;;;36.22;18.63;;;;;;;7.79;100.00;98769.28;5072566;28;20020;-85
2022/04/06 01:57:43;;;;;;;31.45;17.90;;;;;;;7.87;100.00;98760.97;5072613;28;20074;-85
2022/04/06 02:00:16;;;;;;;36.45;19.40;;;;;;;7.88;100.00;98759.19;5074108;28;20457;-86
2022/04/06 02:02:54;;;;;;;33.67;18.58;;;;;;;7.85;100.00;98757.53;5074080;28;20073;-86
2022/04/06 02:05:32;;;;;;;34.40;18.17;;;;;;;7.91;100.00;98765.22;5072895;28;20572;-86
2022/04/06 02:07:59;;;;;;;36.45;18.95;;;;;;;7.86;100.00;98750.41;5074563;28;20382;-86
2022/04/06 02:10:25;;;;;;;39.55;19.40;;;;;;;7.86;100.00;98758.38;5074856;28;20031;-86
2022/04/06 02:13:00;;;;;;;37.03;19.27;;;;;;;7.91;100.00;98759.88;5073126;28;20423;-83
2022/04/06 02:15:28;;;;;;;39.97;19.48;;;;;;;7.86;100.00;98748.59;5072474;28;20089;-86
2022/04/06 02:17:54;;;;;;;39.78;18.98;;;;;;;7.81;100.00;98746.16;5072666;28;20035;-86
2022/04/06 02:20:30;;;;;;;38.28;20.45;;;;;;;7.84;100.00;98745.16;5072401;28;20020;-86
2022/04/06 02:23:11;;;;;;;;;;;;;;;;;;;;;
2022/04/06 02:25:37;;;;;;;39.25;18.00;;;;;;;7.81;100.00;98750.59;5074994;28;20016;-86
2022/04/06 02:28:02;;;;;;;30.63;16.45;;;;;;;7.80;100.00;98748.88;5077446;28;20450;-86
2022/04/06 02:30:28;;;;;;;36.75;18.10;;;;;;;7.81;100.00;98746.16;5077182;28;20035;-87
2022/04/06 02:32:53;;;;;;;43.15;17.75;;;;;;;7.73;100.00;98739.47;5077288;28;20031;-85
2022/04/06 02:35:28;;;;;;;32.70;16.63;;;;;;;7.84;100.00;98739.84;5077688;28;20039;-86
2022/04/06 02:37:53;;;;;;;34.40;16.90;;;;;;;7.80;100.00;98732.94;5077418;28;20493;-85
2022/04/06 02:40:39;;;;;;;32.47;16.20;;;;;;;7.81;100.00;98742.63;5076228;28;20031;-85
2022/04/06 02:43:07;;;;;;;34.20;17.55;;;;;;;7.79;100.00;98744.50;5076039;28;20036;-85
2022/04/06 02:45:33;;;;;;;31.48;17.45;;;;;;;7.78;100.00;98726.84;5077286;28;20395;-85
2022/04/06 02:48:01;;;;;;;36.00;16.75;;;;;;;7.76;100.00;98721.56;5077335;28;20035;-85
2022/04/06 02:50:34;;;;;;;36.38;18.50;;;;;;;7.75;100.00;98724.31;5076702;28;20024;-85
2022/04/06 02:53:11;;;;;;;34.33;18.55;;;;;;;7.74;100.00;98728.75;5075409;28;20027;-85
2022/04/06 02:55:47;;;;;;;35.20;19.73;;;;;;;7.68;100.00;98724.56;5077183;28;20516;-85
2022/04/06 02:58:13;;;;;;;35.95;18.75;;;;;;;7.70;100.00;98722.72;5076673;28;20028;-86
2022/04/06 03:00:41;;;;;;;39.05;18.65;;;;;;;7.78;100.00;98729.50;5075601;28;20032;-86
2022/04/06 03:03:07;;;;;;;43.83;20.23;;;;;;;7.70;100.00;98733.34;5091080;22;20047;-77
2022/04/06 03:05:32;;;;;;;40.70;20.88;;;;;;;7.64;100.00;98722.09;5076521;28;20025;-77
2022/04/06 03:07:58;;;;;;;38.55;20.70;;;;;;;7.69;100.00;98731.59;5078250;28;20554;-77
2022/04/06 03:10:23;;;;;;;36.85;21.15;;;;;;;7.66;100.00;98722.91;5078001;28;20024;-77
2022/04/06 03:12:48;;;;;;;42.60;19.88;;;;;;;7.67;100.00;98717.53;5078119;28;20017;-77
2022/04/06 03:15:14;;;;;;;40.55;19.25;;;;;;;7.67;100.00;98722.84;5077640;28;20046;-77
2022/04/06 03:17:41;;;;;;;40.70;20.85;;;;;;;7.65;100.00;98724.72;5077600;28;20063;-77
2022/04/06 03:20:08;;;;;;;41.78;20.88;;;;;;;7.62;100.00;98719.53;5077935;28;20031;-77
2022/04/06 03:22:33;;;;;;;39.80;20.95;;;;;;;7.60;100.00;98716.09;5078072;28;20025;-77
2022/04/06 03:24:58;;;;;;;44.95;22.92;;;;;;;7.60;100.00;98726.72;5077760;28;20025;-77
2022/04/06 03:27:23;;;;;;;40.97;22.77;;;;;;;7.60;100.00;98716.91;5078152;28;20024;-77
2022/04/06 03:29:49;;;;;;;43.00;22.70;;;;;;;7.64;100.00;98717.66;5079097;28;20020;-77
2022/04/06 03:32:14;;;;;;;43.35;22.83;;;;;;;7.63;100.00;98704.47;5078323;28;20025;-77
2022/04/06 03:34:40;;;;;;;44.92;23.42;;;;;;;7.52;100.00;98708.44;5077852;28;20519;-77
2022/04/06 03:37:05;;;;;;;38.13;23.73;;;;;;;7.57;100.00;98701.13;5074176;28;20119;-76
2022/04/06 03:39:31;;;;;;;45.05;23.90;;;;;;;7.47;100.00;98695.34;5075823;28;20027;-77
2022/04/06 03:41:57;;;;;;;43.90;24.33;;;;;;;7.46;100.00;98692.75;5077053;28;20469;-78
2022/04/06 03:44:22;;;;;;;47.85;24.35;;;;;;;7.49;100.00;98698.81;5076292;28;20028;-77
2022/04/06 03:46:47;;;;;;;47.63;25.30;;;;;;;7.45;100.00;98689.22;5075729;28;20020;-77
2022/04/06 03:49:13;;;;;;;46.53;24.25;;;;;;;7.51;100.00;98692.56;5075834;28;20028;-77
2022/04/06 03:51:38;;;;;;;51.88;24.27;;;;;;;7.44;100.00;98695.50;5076115;28;20412;-77
2022/04/06 03:54:04;;;;;;;44.25;25.95;;;;;;;7.47;100.00;98684.72;5075807;28;20028;-77
2022/04/06 03:56:29;;;;;;;46.50;25.27;;;;;;;7.43;100.00;98688.44;5075601;28;20028;-77
2022/04/06 03:58:55;;;;;;;45.15;24.75;;;;;;;7.39;100.00;98686.84;5076012;28;20027;-77
2022/04/06 04:01:20;;;;;;;45.45;25.40;;;;;;;7.41;100.00;98684.13;5076580;28;20021;-77
2022/04/06 04:03:45;;;;;;;50.15;23.73;;;;;;;7.47;100.00;98684.72;5076606;28;20055;-78
2022/04/06 04:06:11;;;;;;;44.17;23.50;;;;;;;7.44;100.00;98684.00;5075129;28;20020;-77
2022/04/06 04:08:37;;;;;;;47.58;24.98;;;;;;;7.46;100.00;98679.47;5076541;28;20056;-77
2022/04/06 04:11:02;;;;;;;42.05;22.67;;;;;;;7.51;100.00;98690.75;5075077;28;20021;-77
2022/04/06 04:13:27;;;;;;;47.25;23.45;;;;;;;7.40;100.00;98695.66;5076032;28;20060;-77
2022/04/06 04:15:52;;;;;;;45.67;25.70;;;;;;;7.31;100.00;98684.53;5075858;28;20385;-77
2022/04/06 04:18:18;;;;;;;51.42;25.60;;;;;;;7.28;100.00;98682.00;5076501;28;20027;-76
2022/04/06 04:20:45;;;;;;;49.65;26.33;;;;;;;7.28;100.00;98678.47;5074910;28;20032;-77
2022/04/06 04:23:11;;;;;;;48.10;25.80;;;;;;;7.28;100.00;98674.03;5076926;28;20069;-77
2022/04/06 04:25:37;;;;;;;51.05;27.13;;;;;;;7.21;100.00;98673.44;5077102;28;20021;-77
2022/04/06 04:28:03;;;;;;;52.40;25.85;;;;;;;7.21;100.00;98677.88;5077183;28;20393;-76
2022/04/06 04:30:29;;;;;;;53.17;26.98;;;;;;;7.18;100.00;98683.31;5077461;28;20024;-77
2022/04/06 04:32:54;;;;;;;50.05;27.17;;;;;;;7.10;100.00;98675.66;5075382;28;20115;-77
2022/04/06 04:35:19;;;;;;;56.47;27.55;;;;;;;7.10;100.00;98675.66;5074738;28;20025;-77
2022/04/06 04:37:44;;;;;;;53.42;27.85;;;;;;;7.12;100.00;98673.81;5074980;28;20374;-78
2022/04/06 04:40:10;;;;;;;54.97;27.67;;;;;;;7.12;100.00;98679.09;5074789;28;20064;-77
2022/04/06 04:42:36;;;;;;;51.67;28.23;;;;;;;7.20;100.00;98674.34;5075512;28;20382;-77
2022/04/06 04:45:03;;;;;;;52.58;28.30;;;;;;;7.15;100.00;98679.00;5075982;28;20027;-77
2022/04/06 04:47:30;;;;;;;47.95;27.13;;;;;;;7.21;100.00;98669.91;5076250;28;20078;-77
2022/04/06 04:49:56;;;;;;;50.53;26.48;;;;;;;7.18;100.00;98684.19;5076138;28;20074;-78
2022/04/06 04:52:21;;;;;;;51.85;28.25;;;;;;;7.17;100.00;98674.47;5077585;28;20029;-77
2022/04/06 04:54:47;;;;;;;59.72;28.25;;;;;;;7.26;100.00;98667.94;5076669;28;20063;-77
2022/04/06 04:57:12;;;;;;;47.30;26.50;;;;;;;7.22;100.00;98668.97;5077926;28;20020;-77
2022/04/06 04:59:37;;;;;;;51.30;26.58;;;;;;;7.21;100.00;98678.75;5076734;28;20111;-77
2022/04/06 05:02:03;;;;;;;51.58;26.92;;;;;;;7.27;100.00;98677.59;5077034;28;20032;-77
2022/04/06 05:04:28;;;;;;;45.22;24.60;;;;;;;7.39;100.00;98676.22;5075922;28;20024;-77
2022/04/06 05:06:54;;;;;;;44.80;24.67;;;;;;;7.29;100.00;98674.91;5077271;28;20028;-77
2022/04/06 05:09:19;;;;;;;47.88;24.65;;;;;;;7.25;100.00;98668.84;5076745;28;20024;-77
2022/04/06 05:11:44;;;;;;;48.70;23.60;;;;;;;7.31;100.00;98665.06;5076621;28;20020;-77
2022/04/06 05:14:10;;;;;;;43.30;22.55;;;;;;;7.30;100.00;98674.81;5075941;28;20411;-77
2022/04/06 05:16:35;;;;;;;43.38;22.38;;;;;;;7.29;100.00;98669.59;5074536;28;20045;-77
2022/04/06 05:19:01;;;;;;;41.53;22.27;;;;;;;7.31;100.00;98667.72;5075473;28;20039;-77
2022/04/06 05:21:26;;;;;;;37.80;21.60;;;;;;;7.31;100.00;98662.41;5074510;28;20024;-77
2022/04/06 05:23:51;;;;;;;38.80;20.83;;;;;;;7.30;100.00;98671.28;5075181;28;20024;-77
2022/04/06 05:26:17;;;;;;;33.92;19.95;;;;;;;7.24;100.00;98662.66;5076213;28;20020;-77
2022/04/06 05:28:42;;;;;;;42.10;22.00;;;;;;;7.23;100.00;98668.03;5076852;28;20031;-77
2022/04/06 05:31:07;;;;;;;33.83;19.85;;;;;;;7.31;100.00;98670.38;5076442;28;20073;-77
2022/04/06 05:33:32;;;;;;;38.78;19.10;;;;;;;7.26;100.00;98671.44;5075064;28;20079;-77
2022/04/06 05:35:58;;;;;;;34.28;19.25;;;;;;;7.25;100.00;98675.03;5076454;28;20474;-77
2022/04/06 05:38:23;;;;;;;30.02;18.10;;;;;;;7.34;100.00;98673.78;5076772;28;20032;-77
2022/04/06 05:40:48;;;;;;;31.52;16.92;;;;;;;7.34;100.00;98667.59;5077207;28;20032;-77
2022/04/06 05:43:14;;;;;;;27.40;16.45;;;;;;;7.31;100.00;98673.03;5076888;28;20043;-77
2022/04/06 05:45:39;;;;;;;30.33;15.77;;;;;;;7.32;100.00;98669.47;5075049;28;20022;-77
2022/04/06 05:48:05;;;;;;;32.67;17.63;;;;;;;7.29;100.00;98664.28;5076567;28;20450;-77
2022/04/06 05:50:31;;;;;;;27.27;17.02;;;;;;;7.30;100.00;98681.91;5076366;28;20024;-77
2022/04/06 05:52:56;;;;;;;29.88;16.55;;;;;;;7.30;100.00;98677.47;5076436;28;20070;-77
2022/04/06 05:55:21;;;;;;;28.05;15.68;;;;;;;7.29;100.00;98661.63;5076418;28;20103;-77
2022/04/06 05:57:47;;;;;;;33.95;16.02;;;;;;;7.26;100.00;98671.44;5076744;28;20039;-77
2022/04/06 06:00:13;;;;;;;33.15;15.38;;;;;;;7.27;100.00;98674.94;5075598;28;20059;-77
2022/04/06 06:02:38;;;;;;;28.42;15.40;;;;;;;7.28;100.00;98673.16;5075899;28;20032;-77
2022/04/06 06:05:04;;;;;;;30.70;14.70;;;;;;;7.27;100.00;98672.28;5076301;28;20061;-77
2022/04/06 06:07:30;;;;;;;25.13;13.88;;;;;;;7.26;100.00;98667.94;5075389;28;20406;-77
2022/04/06 06:09:56;;;;;;;22.95;13.75;;;;;;;7.28;100.00;98674.03;5076369;28;20052;-77
2022/04/06 06:12:22;;;;;;;30.48;14.45;;;;;;;7.25;100.00;98672.38;5076099;28;20074;-77
2022/04/06 06:14:47;;;;;;;21.25;12.60;;;;;;;7.26;100.00;98666.13;5076312;28;20028;-77
2022/04/06 06:17:12;;;;;;;25.77;13.93;;;;;;;7.27;100.00;98666.97;5075883;28;20041;-77
2022/04/06 06:19:37;;;;;;;23.58;13.18;;;;;;;7.25;100.00;98675.03;5076543;28;20469;-77
2022/04/06 06:22:03;;;;;;;25.92;12.88;;;;;;;7.24;100.00;98670.63;5074400;28;20020;-77
2022/04/06 06:24:28;;;;;;;24.27;11.93;;;;;;;7.26;100.00;98679.41;5076384;28;20020;-76
2022/04/06 06:26:54;;;;;;;21.67;11.80;;;;;;;7.30;100.00;98669.50;5075540;28;20021;-77
2022/04/06 06:29:19;;;;;;;19.40;11.32;;;;;;;7.31;100.00;98673.03;5075875;28;20024;-76
2022/04/06 06:31:45;;;;;;;25.25;12.57;;;;;;;7.30;100.00;98668.63;5076643;28;20051;-77
2022/04/06 06:34:10;;;;;;;20.92;11.23;;;;;;;7.31;100.00;98673.03;5077280;28;20021;-78
2022/04/06 06:36:36;;;;;;;21.30;11.02;;;;;;;7.33;100.00;98673.81;5076179;28;20540;-77
2022/04/06 06:39:02;;;;;;;18.75;10.70;;;;;;;7.34;100.00;98664.94;5074865;28;20039;-76
2022/04/06 06:41:27;;;;;;;21.42;9.93;;;;;;;7.35;100.00;98674.63;5075156;28;20020;-77
2022/04/06 06:43:53;;;;;;;17.75;10.15;;;;;;;7.34;100.00;98668.47;5077269;28;20028;-76
2022/04/06 06:46:20;;;;;;;17.75;9.73;;;;;;;7.35;100.00;98666.66;5077140;28;20020;-77
2022/04/06 06:48:46;;;;;;;19.42;9.45;;;;;;;7.41;100.00;98658.44;5077033;28;20485;-77
2022/04/06 06:51:13;;;;;;;20.50;10.40;;;;;;;7.40;100.00;98671.75;5076379;28;20020;-77
2022/04/06 06:53:39;;;;;;;15.75;8.60;;;;;;;7.41;100.00;98662.88;5077450;28;20055;-77
2022/04/06 06:56:05;;;;;;;18.42;8.75;;;;;;;7.41;100.00;98684.13;5076936;28;20017;-77
2022/04/06 06:58:30;;;;;;;17.65;8.77;;;;;;;7.41;100.00;98666.41;5078351;28;20107;-77
2022/04/06 07:00:55;;;;;;;17.60;8.68;;;;;;;7.44;100.00;98668.94;5076211;28;20031;-76
2022/04/06 07:03:20;;;;;;;20.40;8.60;;;;;;;7.47;100.00;98670.59;5077272;28;20025;-77
2022/04/06 07:05:48;;;;;;;14.68;8.32;;;;;;;7.45;100.00;98665.31;5077013;28;20393;-77
2022/04/06 07:08:13;;;;;;;15.77;8.18;;;;;;;7.43;100.00;98667.19;5077144;28;20439;-77
2022/04/06 07:10:39;;;;;;;15.13;7.53;;;;;;;7.47;100.00;98668.78;5078037;28;20021;-77
2022/04/06 07:13:04;;;;;;;13.95;7.82;;;;;;;7.44;100.00;98662.75;5081082;28;20021;-77
2022/04/06 07:15:30;;;;;;;14.80;7.30;;;;;;;7.45;100.00;98667.13;5080556;28;20111;-76
2022/04/06 07:17:57;;;;;;;14.93;7.25;;;;;;;7.48;100.00;98664.34;5080160;28;20024;-76
2022/04/06 07:20:24;;;;;;;11.55;6.78;;;;;;;7.43;100.00;98667.19;5079300;28;20024;-77
2022/04/06 07:22:50;;;;;;;12.23;7.13;;;;;;;7.44;100.00;98654.78;5081570;28;20186;-77
2022/04/06 07:25:16;;;;;;;14.30;7.50;;;;;;;7.46;100.00;98656.44;5082101;28;20048;-76
2022/04/06 07:27:41;;;;;;;16.63;7.38;;;;;;;7.45;100.00;98653.84;5081551;28;20021;-76
2022/04/06 07:30:08;;;;;;;17.27;7.25;;;;;;;7.47;100.00;98662.63;5080504;28;20103;-77
2022/04/06 07:32:35;;;;;;;17.98;7.82;;;;;;;7.44;100.00;98653.00;5081290;28;20389;-77
2022/04/06 07:35:01;;;;;;;14.02;7.45;;;;;;;7.41;100.00;98673.50;5080688;28;20385;-76
2022/04/06 07:37:34;;;;;;;17.20;7.80;;;;;;;7.38;100.00;98653.25;5081407;28;20021;-76
2022/04/06 07:39:59;;;;;;;17.05;8.05;;;;;;;7.39;100.00;98660.31;5081060;28;20103;-77
2022/04/06 07:42:24;;;;;;;16.20;7.35;;;;;;;7.48;100.00;98651.91;5081186;28;20454;-76
2022/04/06 07:44:49;;;;;;;12.07;7.32;;;;;;;7.42;100.00;98646.03;5080696;28;20031;-76
2022/04/06 07:47:15;;;;;;;11.18;6.38;;;;;;;7.41;100.00;98631.88;5081828;28;20025;-76
2022/04/06 07:49:40;;;;;;;12.55;6.63;;;;;;;7.45;100.00;98649.41;5082085;28;20035;-77
2022/04/06 07:52:05;;;;;;;12.10;6.20;;;;;;;7.40;100.00;98640.75;5081952;28;20060;-76
2022/04/06 07:54:31;;;;;;;12.43;6.75;;;;;;;7.38;100.00;98639.97;5080189;28;20020;-76
2022/04/06 07:56:56;;;;;;;15.75;6.15;;;;;;;7.36;100.00;98640.06;5081594;28;20035;-76
2022/04/06 07:59:21;;;;;;;11.82;6.45;;;;;;;7.40;100.00;98646.06;5081469;28;20024;-76
2022/04/06 08:01:46;;;;;;;14.05;7.30;;;;;;;7.42;100.00;98638.91;5079937;28;20037;-77
2022/04/06 08:04:12;;;;;;;12.82;5.93;;;;;;;7.38;100.00;98642.63;5081790;28;20039;-76
2022/04/06 08:06:37;;;;;;;12.98;6.00;;;;;;;7.40;100.00;98635.44;5081080;28;20020;-77
2022/04/06 08:09:06;;;;;;;13.43;5.90;;;;;;;7.38;100.00;98639.97;5080517;28;20395;-76
2022/04/06 08:11:31;;;;;;;12.93;6.18;;;;;;;7.36;100.00;98634.75;5082617;28;20028;-76
2022/04/06 08:13:57;;;;;;;17.88;6.50;;;;;;;7.38;100.00;98643.50;5081562;28;20390;-76
2022/04/06 08:16:22;;;;;;;13.70;5.93;;;;;;;7.41;100.00;98641.63;5081000;28;20084;-76
2022/04/06 08:18:47;;;;;;;20.58;7.22;;;;;;;7.41;100.00;98637.19;5079696;28;20409;-77
2022/04/06 08:21:13;;;;;;;13.82;6.50;;;;;;;7.53;100.00;98637.56;5081606;28;20036;-76
2022/04/06 08:23:38;;;;;;;13.18;6.47;;;;;;;7.47;100.00;98639.56;5079542;28;20051;-76
2022/04/06 08:26:03;;;;;;;18.17;7.65;;;;;;;7.45;100.00;98638.78;5079146;28;20186;-76
2022/04/06 08:28:29;;;;;;;16.63;8.27;;;;;;;7.44;100.00;98626.44;5080637;28;20016;-76
2022/04/06 08:30:54;;;;;;;13.75;7.72;;;;;;;7.45;100.00;98628.16;5078341;28;20031;-76
2022/04/06 08:33:19;;;;;;;13.85;7.88;;;;;;;7.46;100.00;98632.53;5079743;28;20107;-76
2022/04/06 08:35:44;;;;;;;12.52;8.35;;;;;;;7.36;100.00;98620.59;5080469;28;20024;-76
2022/04/06 08:38:15;;;;;;;15.93;8.65;;;;;;;7.34;100.00;98638.38;5080062;28;20443;-76
2022/04/06 08:40:42;;;;;;;16.45;8.63;;;;;;;7.34;100.00;98615.38;5078973;28;20077;-76
2022/04/06 08:43:09;;;;;;;16.23;8.25;;;;;;;7.40;100.00;98614.22;5081175;28;20021;-76
2022/04/06 08:45:36;;;;;;;15.98;8.43;;;;;;;7.40;100.00;98619.50;5080618;28;20021;-76
2022/04/06 08:48:04;;;;;;;17.35;8.82;;;;;;;7.45;100.00;98620.19;5080217;28;20027;-76
2022/04/06 08:50:32;;;;;;;16.27;8.05;;;;;;;7.44;100.00;98621.13;5079225;28;20025;-76
2022/04/06 08:52:58;;;;;;;14.10;8.00;;;;;;;7.47;100.00;98613.00;5079977;28;20166;-76
2022/04/06 08:55:24;;;;;;;18.58;8.25;;;;;;;7.53;100.00;98618.97;5080211;28;20067;-76
2022/04/06 08:57:49;;;;;;;15.73;8.52;;;;;;;7.56;100.00;98619.72;5080129;28;20024;-76
2022/04/06 09:00:17;;;;;;;16.70;8.35;;;;;;;7.55;100.00;98611.81;5078415;28;20569;-76
2022/04/06 09:05:11;;;;;;;16.38;7.07;;;;;;;7.65;100.00;98609.63;5125773;22;20126;-84
2022/04/06 09:07:41;;;;;;;13.35;6.68;;;;;;;7.63;100.00;98607.00;5081121;28;20054;-82
2022/04/06 09:10:08;;;;;;;13.57;6.25;;;;;;;7.70;100.00;98608.47;5079470;28;20022;-85
2022/04/06 09:12:39;;;;;;;10.60;5.75;;;;;;;7.75;100.00;98607.41;5073965;28;20157;-84
2022/04/06 09:15:12;;;;;;;10.15;5.00;;;;;;;7.79;100.00;98607.19;5076759;28;20086;-85
2022/04/06 09:17:45;;;;;;;11.18;4.68;;;;;;;7.86;100.00;98613.06;5076946;28;20025;-84
2022/04/06 09:20:12;;;;;;;11.27;4.05;;;;;;;7.86;100.00;98622.84;5081567;28;20035;-85
2022/04/06 09:22:42;;;;;;;9.70;3.58;;;;;;;7.97;100.00;98615.22;5082624;28;20031;-85
2022/04/06 09:25:09;;;;;;;8.45;3.75;;;;;;;8.07;98.78;98615.66;5081358;28;20020;-85
2022/04/06 09:27:44;;;;;;;7.95;3.42;;;;;;;8.13;97.97;98617.19;5088455;28;20013;-84
2022/04/06 09:30:10;;;;;;;7.03;3.05;;;;;;;8.15;99.15;98616.19;5096059;28;20423;-83
2022/04/06 09:32:42;;;;;;;6.10;3.22;;;;;;;8.12;98.03;98626.94;5096615;28;20066;-86
2022/04/06 09:35:40;;;;;;;;;;;;;;;;;;;;;
2022/04/06 09:38:35;;;;;;;10.05;4.68;;;;;;;8.00;99.98;98623.06;5084957;28;20580;-86
2022/04/06 09:41:06;;;;;;;11.60;4.90;;;;;;;7.99;100.00;98625.81;5085416;28;20029;-86
2022/04/06 09:43:41;;;;;;;15.05;6.15;;;;;;;7.89;100.00;98631.53;5084041;28;20064;-86
2022/04/06 09:49:34;;;;;;;14.68;7.68;;;;;;;7.67;100.00;98621.91;5076148;28;20042;-84
2022/04/06 09:55:05;;;;;;;13.27;8.15;;;;;;;7.62;100.00;98625.69;5061454;28;20090;-84
2022/04/06 09:57:58;;;;;;;17.45;8.43;;;;;;;7.60;100.00;98621.28;5077881;28;20024;-84
2022/04/06 10:00:29;;;;;;;13.70;8.15;;;;;;;7.65;100.00;98613.13;5078351;28;20059;-86
2022/04/06 10:03:07;;;;;;;16.45;8.57;;;;;;;7.74;100.00;98606.53;5080871;28;20035;-88
2022/04/06 10:05:37;;;;;;;9.75;7.13;;;;;;;7.85;100.00;98616.66;5081480;28;20052;-86
2022/04/06 10:08:04;;;;;;;13.88;7.13;;;;;;;7.86;100.00;98615.72;5078140;28;20095;-85
2022/04/06 10:10:36;;;;;;;14.02;7.93;;;;;;;7.92;100.00;98607.47;5078863;28;20024;-84
2022/04/06 10:13:05;;;;;;;11.63;7.10;;;;;;;8.02;100.00;98589.31;5079782;28;20021;-86
2022/04/06 10:15:35;;;;;;;11.95;7.45;;;;;;;8.09;100.00;98611.13;5080826;28;20558;-85
2022/04/06 10:18:11;;;;;;;13.68;7.30;;;;;;;8.20;100.00;98604.44;5081093;28;20028;-85
2022/04/06 10:21:06;;;;;;;12.20;7.03;;;;;;;8.34;100.00;98603.81;5081977;28;20028;-83
2022/04/06 10:24:04;;;;;;;10.85;6.70;;;;;;;8.52;100.00;98580.78;5074070;28;20059;-85
2022/04/06 10:27:03;;;;;;;15.23;7.72;;;;;;;8.44;100.00;98594.44;5073628;28;20140;-84
2022/04/06 10:29:31;;;;;;;12.77;7.03;;;;;;;8.37;100.00;98583.25;5075678;28;20028;-85
2022/04/06 10:31:59;;;;;;;16.27;7.90;;;;;;;8.33;100.00;98586.97;5074514;28;20063;-85
2022/04/06 10:34:33;;;;;;;13.95;8.77;;;;;;;8.37;100.00;98588.56;5077944;28;20032;-85
2022/04/06 10:37:22;;;;;;;13.80;9.55;;;;;;;8.23;100.00;98585.69;5076943;28;20016;-85
2022/04/06 10:40:09;;;;;;;17.13;9.65;;;;;;;8.25;100.00;98578.50;5075888;28;20024;-85
2022/04/06 10:42:37;;;;;;;13.60;9.00;;;;;;;8.20;100.00;98580.53;5077763;28;20028;-84
2022/04/06 10:45:36;;;;;;;14.23;8.38;;;;;;;8.13;100.00;98574.66;5077749;28;20029;-86
2022/04/06 10:48:16;;;;;;;13.50;8.02;;;;;;;8.09;100.00;98557.97;5058787;28;20038;-86
2022/04/06 10:50:51;;;;;;;13.32;8.25;;;;;;;8.03;100.00;98568.91;5083070;28;20024;-85
2022/04/06 10:53:26;;;;;;;15.35;7.90;;;;;;;8.20;100.00;98569.88;5084650;28;20024;-86
2022/04/06 10:56:05;;;;;;;12.73;7.55;;;;;;;8.24;100.00;98556.41;5082997;28;20111;-85
2022/04/06 10:58:55;;;;;;;9.85;6.70;;;;;;;8.28;100.00;98562.41;5080520;28;20044;-85
2022/04/06 11:01:45;;;;;;;11.18;6.30;;;;;;;8.20;100.00;98553.94;5077923;28;20106;-84
2022/04/06 11:04:40;;;;;;;11.57;6.32;;;;;;;8.17;100.00;98565.56;5079938;28;20021;-84
2022/04/06 11:07:05;;;;;;;13.80;6.40;;;;;;;8.20;100.00;98560.13;5080012;28;20546;-83
2022/04/06 11:12:32;;;;;;;10.13;6.32;;;;;;;8.10;100.00;98557.03;5081752;28;20377;-86
2022/04/06 11:15:09;;;;;;;11.32;6.65;;;;;;;8.07;100.00;98565.16;5078974;28;20031;-86
2022/04/06 11:17:42;;;;;;;12.25;7.70;;;;;;;8.08;100.00;98561.56;5079628;28;20071;-86
2022/04/06 11:20:18;;;;;;;12.38;7.28;;;;;;;8.05;100.00;98562.59;5081042;28;20082;-86
2022/04/06 11:22:54;;;;;;;12.82;7.85;;;;;;;8.02;100.00;98567.16;5081239;28;20060;-86
2022/04/06 11:25:31;;;;;;;12.10;7.43;;;;;;;8.06;100.00;98552.81;5085528;28;20029;-86
2022/04/06 11:28:11;;;;;;;10.38;7.00;;;;;;;8.10;100.00;98554.38;5084045;28;20052;-86
2022/04/06 11:30:42;;;;;;;10.50;6.57;;;;;;;8.07;100.00;98557.19;5083406;28;20020;-85
2022/04/06 11:33:07;;;;;;;11.73;7.90;;;;;;;7.89;100.00;98551.81;5083418;28;20042;-85
2022/04/06 11:36:13;;;;;;;14.32;8.38;;;;;;;7.94;100.00;98549.78;5075773;28;20020;-85
2022/04/06 11:38:37;;;;;;;13.88;8.50;;;;;;;7.89;100.00;98545.63;5079129;28;20503;-82
2022/04/06 11:41:08;;;;;;;12.73;9.10;;;;;;;7.88;100.00;98555.41;5080738;28;20481;-84
2022/04/06 11:43:50;;;;;;;12.40;8.55;;;;;;;7.92;100.00;98543.69;5080761;28;20021;-84
2022/04/06 11:46:25;;;;;;;11.30;7.78;;;;;;;8.00;100.00;98542.47;5080627;28;20048;-85
2022/04/06 11:48:53;;;;;;;12.43;7.82;;;;;;;7.91;100.00;98538.47;5082753;28;20024;-84
2022/04/06 11:51:19;;;;;;;10.77;7.38;;;;;;;7.93;100.00;98548.09;5082897;28;20063;-85